Time;durP1;ratioP1;P1;durP2;ratioP2;P2;SDS_P1;SDS_P2;PMS_P1;PMS_P2;Temp;Humidity;BMP_temperature;BMP_pressure;BME280_temperature;BME280_humidity;BME280_pressure;Samples;Min_cycle;Max_cycle;Signal;HPM_P1;HPM_P2
2022/10/30 00:00:22;;;;;;;13.60;8.67;;;;;;;11.97;63.93;100252.69;5055677;28;20254;-65
2022/10/30 00:02:49;;;;;;;10.57;8.70;;;;;;;11.92;63.90;100254.28;5055746;28;20199;-65
2022/10/30 00:05:17;;;;;;;10.97;8.33;;;;;;;11.90;63.94;100241.16;5055546;28;20198;-65
2022/10/30 00:07:44;;;;;;;9.17;7.93;;;;;;;11.80;63.95;100240.59;5055561;28;20246;-64
2022/10/30 00:10:10;;;;;;;9.27;8.30;;;;;;;11.71;64.54;100239.03;5055116;28;20261;-64
2022/10/30 00:12:39;;;;;;;8.83;7.93;;;;;;;11.59;64.62;100248.47;5058708;28;20265;-64
2022/10/30 00:15:06;;;;;;;9.07;8.17;;;;;;;11.52;65.18;100241.41;5075035;28;20271;-65
2022/10/30 00:17:33;;;;;;;15.23;8.40;;;;;;;11.46;65.50;100242.97;5075191;28;20203;-65
2022/10/30 00:20:00;;;;;;;14.17;8.10;;;;;;;11.51;65.53;100239.78;5074973;28;20659;-64
2022/10/30 00:22:27;;;;;;;10.77;7.90;;;;;;;11.53;65.46;100235.06;5075288;28;20260;-64
2022/10/30 00:24:53;;;;;;;25.20;8.53;;;;;;;11.53;65.18;100227.94;5075076;28;20218;-65
2022/10/30 00:27:20;;;;;;;7.77;7.07;;;;;;;11.53;65.10;100227.09;5074738;28;20256;-64
2022/10/30 00:29:48;;;;;;;8.47;7.67;;;;;;;11.55;65.29;100225.09;5061933;28;20230;-65
2022/10/30 00:32:15;;;;;;;8.20;7.13;;;;;;;11.54;65.27;100218.09;5055116;28;20189;-64
2022/10/30 00:34:41;;;;;;;16.30;6.77;;;;;;;11.53;65.13;100222.63;5055043;28;20201;-64
2022/10/30 00:37:08;;;;;;;12.53;7.23;;;;;;;11.50;65.26;100215.00;5054901;28;20195;-64
2022/10/30 00:39:35;;;;;;;10.30;7.80;;;;;;;11.47;65.65;100210.03;5054618;28;20632;-64
2022/10/30 00:42:02;;;;;;;8.13;7.43;;;;;;;11.47;65.92;100207.38;5054432;28;20203;-64
2022/10/30 00:44:35;;;;;;;8.27;7.50;;;;;;;11.44;66.17;100202.44;5066990;28;20253;-65
2022/10/30 00:47:06;;;;;;;13.17;7.40;;;;;;;11.42;66.37;100207.09;5072872;28;20185;-65
2022/10/30 00:49:37;;;;;;;7.67;6.83;;;;;;;11.41;66.63;100199.31;5074513;28;20193;-65
2022/10/30 00:52:06;;;;;;;10.93;7.07;;;;;;;11.39;66.47;100193.34;5073766;28;20259;-65
2022/10/30 00:54:34;;;;;;;8.17;7.37;;;;;;;11.40;66.49;100201.16;5073996;28;20269;-65
2022/10/30 00:57:02;;;;;;;9.40;7.63;;;;;;;11.38;66.61;100203.16;5073416;28;20673;-65
2022/10/30 00:59:32;;;;;;;12.90;7.27;;;;;;;11.39;66.48;100202.16;5073824;28;20194;-65
2022/10/30 01:02:02;;;;;;;8.77;7.87;;;;;;;11.38;66.29;100205.81;5074231;28;20189;-65
2022/10/30 01:04:31;;;;;;;8.07;7.37;;;;;;;11.36;66.27;100204.34;5074030;28;20700;-65
2022/10/30 01:07:05;;;;;;;10.00;7.57;;;;;;;11.35;66.21;100202.72;5073893;28;20657;-65
2022/10/30 01:09:32;;;;;;;9.63;7.73;;;;;;;11.34;66.22;100201.88;5073600;28;20201;-65
2022/10/30 01:11:58;;;;;;;8.80;7.63;;;;;;;11.33;65.97;100189.59;5074469;28;20285;-65
2022/10/30 01:14:25;;;;;;;9.03;7.40;;;;;;;11.27;66.43;100195.63;5073685;28;20236;-65
2022/10/30 01:17:11;;;;;;;7.93;7.23;;;;;;;11.21;66.60;100201.69;5073226;28;20665;-65
2022/10/30 01:19:48;;;;;;;10.10;7.23;;;;;;;11.18;66.87;100191.41;5074500;28;20186;-65
2022/10/30 01:22:35;;;;;;;8.70;7.10;;;;;;;11.07;67.08;100189.22;5073832;28;20185;-65
2022/10/30 01:25:12;;;;;;;7.80;7.03;;;;;;;11.05;67.50;100188.56;5073779;28;20698;-65
2022/10/30 01:27:49;;;;;;;7.17;6.43;;;;;;;10.96;67.21;100187.00;5074233;28;20247;-65
2022/10/30 01:30:26;;;;;;;7.70;6.63;;;;;;;10.98;66.78;100184.97;5056978;28;20224;-65
2022/10/30 01:33:08;;;;;;;8.10;7.30;;;;;;;10.91;67.27;100179.56;5053886;28;20216;-65
2022/10/30 01:35:43;;;;;;;9.87;7.33;;;;;;;10.95;67.73;100186.16;5053259;28;20646;-65
2022/10/30 01:38:16;;;;;;;11.27;7.30;;;;;;;10.99;67.53;100181.34;5053185;28;20189;-65
2022/10/30 01:40:43;;;;;;;9.67;7.30;;;;;;;10.95;67.66;100185.38;5053044;28;20741;-64
2022/10/30 01:43:10;;;;;;;9.33;7.67;;;;;;;10.90;67.79;100182.41;5052624;28;20256;-65
2022/10/30 01:46:00;;;;;;;11.20;6.50;;;;;;;10.86;67.66;100181.09;5052551;28;20221;-65
2022/10/30 01:48:55;;;;;;;7.50;6.90;;;;;;;10.82;67.92;100177.16;5052772;28;20183;-65
2022/10/30 01:51:34;;;;;;;9.00;6.63;;;;;;;10.78;68.35;100173.22;5053079;28;20243;-64
2022/10/30 01:54:11;;;;;;;8.83;7.00;;;;;;;10.67;68.69;100171.00;5052849;28;20271;-65
2022/10/30 01:56:48;;;;;;;8.20;7.40;;;;;;;10.58;68.15;100166.78;5052661;28;20244;-64
2022/10/30 01:59:21;;;;;;;16.70;7.93;;;;;;;10.48;68.76;100171.50;5052331;28;20190;-64
2022/10/30 02:01:49;;;;;;;9.80;7.80;;;;;;;10.43;69.03;100158.78;5052966;28;20236;-65
2022/10/30 02:04:16;;;;;;;12.80;8.80;;;;;;;10.33;69.48;100157.34;5052407;28;20221;-65
2022/10/30 02:06:44;;;;;;;11.23;7.90;;;;;;;10.27;69.69;100152.75;5053846;28;20193;-65
2022/10/30 02:09:11;;;;;;;9.40;8.27;;;;;;;10.26;69.86;100145.81;5052307;28;20361;-65
2022/10/30 02:11:38;;;;;;;12.70;8.43;;;;;;;10.25;69.77;100146.81;5051983;28;20282;-65
2022/10/30 02:14:07;;;;;;;9.07;8.10;;;;;;;10.26;70.09;100145.81;5067677;28;20199;-65
2022/10/30 02:16:37;;;;;;;8.90;8.03;;;;;;;10.26;70.22;100140.50;5071999;28;20204;-64
2022/10/30 02:19:06;;;;;;;9.70;7.33;;;;;;;10.18;70.28;100137.91;5072593;28;20214;-64
2022/10/30 02:21:34;;;;;;;9.40;7.97;;;;;;;10.14;70.24;100142.72;5072241;28;20196;-64
2022/10/30 02:24:01;;;;;;;12.47;8.27;;;;;;;10.21;70.30;100148.97;5072761;28;20270;-64
2022/10/30 02:26:27;;;;;;;10.47;8.00;;;;;;;10.18;70.63;100144.00;5072538;28;20741;-64
2022/10/30 02:28:54;;;;;;;10.17;8.37;;;;;;;10.11;69.37;100147.56;5065859;28;20805;-64
2022/10/30 02:31:21;;;;;;;10.17;8.57;;;;;;;10.06;69.63;100144.63;5052625;28;20192;-65
2022/10/30 02:33:49;;;;;;;11.83;9.30;;;;;;;9.99;69.09;100133.03;5052573;28;20705;-66
2022/10/30 02:36:15;;;;;;;9.20;7.70;;;;;;;9.87;69.90;100129.97;5053096;28;20192;-65
2022/10/30 02:38:44;;;;;;;9.30;8.50;;;;;;;9.79;70.93;100131.81;5052253;28;20664;-65
2022/10/30 02:41:11;;;;;;;9.87;8.23;;;;;;;9.78;71.16;100127.53;5052214;28;20192;-65
2022/10/30 02:43:38;;;;;;;11.60;8.53;;;;;;;9.85;70.56;100133.78;5052358;28;20193;-65
2022/10/30 02:46:05;;;;;;;9.80;8.37;;;;;;;9.78;70.54;100124.88;5052217;28;20661;-66
2022/10/30 02:48:32;;;;;;;9.03;8.20;;;;;;;9.92;69.71;100140.88;5052383;28;20331;-65
2022/10/30 02:51:00;;;;;;;9.97;8.17;;;;;;;9.95;70.03;100137.03;5052226;28;20196;-65
2022/10/30 02:53:26;;;;;;;9.53;7.80;;;;;;;9.98;70.09;100139.34;5052335;28;20189;-65
2022/10/30 02:55:55;;;;;;;9.13;8.23;;;;;;;10.00;70.00;100139.97;5051912;28;20200;-65
2022/10/30 02:58:21;;;;;;;9.40;8.50;;;;;;;10.01;70.24;100137.16;5052073;28;20196;-65
2022/10/30 03:00:48;;;;;;;10.77;8.57;;;;;;;10.02;70.55;100132.69;5052102;28;20188;-65
2022/10/30 03:03:15;;;;;;;11.40;7.60;;;;;;;10.01;70.57;100136.34;5051800;28;20204;-65
2022/10/30 03:05:41;;;;;;;10.67;7.50;;;;;;;9.94;70.51;100138.03;5051476;28;20224;-65
2022/10/30 03:08:08;;;;;;;9.37;8.47;;;;;;;9.78;70.63;100141.63;5051657;28;20572;-65
2022/10/30 03:10:35;;;;;;;8.73;7.87;;;;;;;9.69;71.54;100144.50;5051679;28;20672;-65
2022/10/30 03:13:03;;;;;;;16.77;8.70;;;;;;;9.58;71.69;100139.56;5059187;28;20219;-65
2022/10/30 03:15:29;;;;;;;21.73;9.00;;;;;;;9.56;71.89;100137.09;5071651;28;20737;-66
2022/10/30 03:17:56;;;;;;;10.47;9.23;;;;;;;9.42;71.44;100129.88;5071841;28;20252;-66
2022/10/30 03:20:23;;;;;;;10.13;8.47;;;;;;;9.33;72.72;100130.94;5071774;28;20258;-65
2022/10/30 03:22:49;;;;;;;9.07;8.17;;;;;;;9.29;73.15;100134.09;5071597;28;20253;-65
2022/10/30 03:25:22;;;;;;;9.50;8.50;;;;;;;9.23;73.10;100129.47;5071695;28;20220;-65
2022/10/30 03:27:49;;;;;;;12.80;8.87;;;;;;;9.18;73.63;100131.78;5071258;28;20640;-65
2022/10/30 03:30:17;;;;;;;8.70;7.83;;;;;;;9.20;73.53;100135.94;5054384;28;20254;-65
2022/10/30 03:32:43;;;;;;;11.83;9.83;;;;;;;9.21;74.15;100142.06;5051466;28;20266;-66
2022/10/30 03:35:10;;;;;;;9.30;8.33;;;;;;;9.21;72.72;100147.38;5051318;28;20200;-66
2022/10/30 03:37:37;;;;;;;9.70;8.70;;;;;;;9.25;72.92;100143.38;5051585;28;20193;-65
2022/10/30 03:40:04;;;;;;;11.83;8.93;;;;;;;9.33;72.98;100135.38;5051494;28;20189;-65
2022/10/30 03:42:30;;;;;;;9.37;8.37;;;;;;;9.39;72.65;100140.81;5051868;28;20192;-65
2022/10/30 03:44:57;;;;;;;12.00;7.97;;;;;;;9.44;72.41;100149.09;5051408;28;20220;-65
2022/10/30 03:47:25;;;;;;;13.63;9.13;;;;;;;9.46;72.48;100140.97;5051157;28;20192;-65
2022/10/30 03:49:51;;;;;;;12.03;8.47;;;;;;;9.46;72.77;100148.91;5051249;28;20656;-65
2022/10/30 03:52:18;;;;;;;9.60;7.60;;;;;;;9.45;72.45;100139.31;5051314;28;20573;-65
2022/10/30 03:54:45;;;;;;;13.10;7.67;;;;;;;9.39;72.61;100150.63;5051877;28;20267;-65
2022/10/30 03:57:11;;;;;;;9.93;7.97;;;;;;;9.31;73.46;100155.97;5051816;28;20255;-65
2022/10/30 03:59:38;;;;;;;10.00;7.83;;;;;;;9.26;73.82;100147.66;5051920;28;20192;-65
2022/10/30 04:02:05;;;;;;;10.10;7.20;;;;;;;9.30;73.85;100151.63;5051313;28;20390;-65
2022/10/30 04:04:33;;;;;;;9.63;8.00;;;;;;;9.34;73.38;100158.25;5051268;28;20224;-65
2022/10/30 04:06:59;;;;;;;9.63;7.80;;;;;;;9.28;72.71;100143.03;5051581;28;20255;-65
2022/10/30 04:09:26;;;;;;;8.53;7.83;;;;;;;9.22;72.70;100149.00;5051079;28;20193;-65
2022/10/30 04:11:53;;;;;;;11.87;7.93;;;;;;;9.29;73.40;100157.94;5051685;28;20228;-65
2022/10/30 04:14:19;;;;;;;14.80;8.13;;;;;;;9.32;73.40;100154.94;5068887;28;20238;-66
2022/10/30 04:16:46;;;;;;;11.57;7.60;;;;;;;9.31;73.05;100153.31;5071538;28;20253;-66
2022/10/30 04:19:13;;;;;;;10.80;8.43;;;;;;;9.30;72.92;100148.97;5071070;28;20196;-66
2022/10/30 04:21:42;;;;;;;9.60;8.00;;;;;;;9.37;72.87;100158.75;5073881;28;20252;-66
2022/10/30 04:24:09;;;;;;;14.50;7.50;;;;;;;9.37;72.30;100157.91;5075017;28;20188;-65
2022/10/30 04:26:36;;;;;;;18.10;8.77;;;;;;;9.30;72.58;100147.16;5074799;28;20203;-65
2022/10/30 04:29:03;;;;;;;13.43;8.27;;;;;;;9.31;73.40;100158.59;5067668;28;20193;-66
2022/10/30 04:31:29;;;;;;;9.47;7.50;;;;;;;9.29;73.00;100157.94;5054980;28;20192;-66
2022/10/30 04:33:56;;;;;;;12.37;7.60;;;;;;;9.27;74.19;100152.81;5055309;28;20258;-66
2022/10/30 04:36:28;;;;;;;10.10;8.03;;;;;;;9.30;73.75;100162.22;5054307;28;20246;-66
2022/10/30 04:38:56;;;;;;;8.40;7.47;;;;;;;9.35;73.59;100159.91;5055036;28;20292;-66
2022/10/30 04:41:23;;;;;;;8.93;7.43;;;;;;;9.37;72.90;100157.91;5054499;28;20657;-66
2022/10/30 04:43:50;;;;;;;10.17;7.40;;;;;;;9.35;73.34;100159.91;5054872;28;20270;-66
2022/10/30 04:46:17;;;;;;;20.80;7.53;;;;;;;9.30;72.89;100154.28;5054426;28;20217;-66
2022/10/30 04:48:44;;;;;;;8.50;7.17;;;;;;;9.24;73.22;100162.94;5054071;28;20189;-65
2022/10/30 04:51:11;;;;;;;10.03;7.27;;;;;;;9.25;74.62;100159.28;5054140;28;20258;-66
2022/10/30 04:53:38;;;;;;;14.47;10.47;;;;;;;9.16;74.34;100155.00;5054163;28;20203;-66
2022/10/30 04:56:07;;;;;;;34.70;30.33;;;;;;;9.21;74.70;100158.81;5053624;28;20201;-66
2022/10/30 04:58:34;;;;;;;32.93;26.40;;;;;;;9.21;74.27;100160.63;5054021;28;20193;-66
2022/10/30 05:01:01;;;;;;;35.03;15.13;;;;;;;9.19;74.29;100159.97;5054246;28;20242;-65
2022/10/30 05:03:28;;;;;;;10.80;8.27;;;;;;;9.14;75.18;100162.28;5053382;28;20193;-66
2022/10/30 05:05:58;;;;;;;8.23;7.50;;;;;;;9.03;74.86;100155.53;5053871;28;20220;-65
2022/10/30 05:08:24;;;;;;;14.63;7.83;;;;;;;9.03;74.83;100167.97;5053739;28;20211;-65
2022/10/30 05:10:51;;;;;;;8.40;7.60;;;;;;;9.07;74.56;100162.16;5053580;28;20353;-66
2022/10/30 05:13:19;;;;;;;9.40;8.40;;;;;;;9.12;74.73;100165.13;5062744;28;20188;-65
2022/10/30 05:15:46;;;;;;;12.67;10.27;;;;;;;9.32;74.63;100160.25;5073397;28;20277;-66
2022/10/30 05:18:13;;;;;;;13.87;8.90;;;;;;;9.52;73.99;100161.50;5073586;28;20188;-66
2022/10/30 05:20:39;;;;;;;9.27;8.33;;;;;;;9.69;72.23;100149.81;5073258;28;20192;-66
2022/10/30 05:23:06;;;;;;;10.23;8.03;;;;;;;9.97;72.58;100156.28;5073355;28;20625;-66
2022/10/30 05:25:33;;;;;;;11.30;7.53;;;;;;;10.23;71.07;100162.06;5073649;28;20277;-65
2022/10/30 05:28:00;;;;;;;10.07;7.93;;;;;;;10.48;70.47;100166.19;5073300;28;20245;-66
2022/10/30 05:30:31;;;;;;;11.43;7.27;;;;;;;10.80;69.81;100163.25;5054845;28;20200;-67
2022/10/30 05:32:58;;;;;;;9.57;7.17;;;;;;;11.12;68.69;100165.56;5052869;28;20619;-66
2022/10/30 05:35:25;;;;;;;9.30;6.50;;;;;;;11.42;67.79;100159.22;5053430;28;20297;-66
2022/10/30 05:37:52;;;;;;;14.10;7.77;;;;;;;11.74;66.03;100177.47;5052922;28;20666;-66
2022/10/30 05:40:18;;;;;;;11.83;7.33;;;;;;;12.05;64.82;100191.31;5053203;28;20201;-66
2022/10/30 05:42:45;;;;;;;10.90;7.57;;;;;;;12.35;63.99;100184.91;5053123;28;20193;-65
2022/10/30 05:45:12;;;;;;;9.10;6.70;;;;;;;12.67;62.94;100189.72;5052654;28;20313;-65
2022/10/30 05:47:41;;;;;;;9.87;6.90;;;;;;;12.99;61.85;100191.81;5053083;28;20199;-65
2022/10/30 05:50:09;;;;;;;12.07;6.90;;;;;;;13.32;60.94;100192.84;5052170;28;20201;-67
2022/10/30 05:52:35;;;;;;;11.27;6.50;;;;;;;13.64;59.28;100194.88;5052606;28;20195;-65
2022/10/30 05:55:02;;;;;;;7.57;6.70;;;;;;;13.96;58.71;100196.84;5052761;28;20200;-66
2022/10/30 05:57:31;;;;;;;10.17;6.73;;;;;;;14.26;57.16;100208.09;5052528;28;20189;-65
2022/10/30 05:59:58;;;;;;;7.50;6.90;;;;;;;14.60;56.67;100206.09;5052113;28;20242;-65
2022/10/30 06:02:25;;;;;;;13.80;6.97;;;;;;;14.94;55.62;100207.72;5052270;28;20269;-65
2022/10/30 06:04:53;;;;;;;10.97;8.47;;;;;;;15.05;54.47;100178.50;5052265;28;20250;-65
2022/10/30 06:07:20;;;;;;;8.83;6.00;;;;;;;15.55;53.02;100201.91;5063646;28;20725;-64
2022/10/30 06:09:46;;;;;;;9.20;6.13;;;;;;;15.79;52.29;100203.03;5071632;28;20664;-64
2022/10/30 06:12:13;;;;;;;8.30;5.20;;;;;;;15.94;49.97;100200.91;5072501;28;20235;-65
2022/10/30 06:14:40;;;;;;;6.03;5.53;;;;;;;16.01;49.90;100201.72;5072294;28;20249;-63
2022/10/30 06:17:06;;;;;;;6.63;5.40;;;;;;;16.17;48.99;100205.75;5071746;28;20203;-65
2022/10/30 06:19:33;;;;;;;7.23;4.57;;;;;;;16.43;49.56;100200.25;5071903;28;20249;-65
2022/10/30 06:22:01;;;;;;;7.80;5.87;;;;;;;16.72;49.11;100199.63;5071606;28;20249;-65
2022/10/30 06:24:28;;;;;;;27.23;6.50;;;;;;;17.03;47.37;100207.66;5071073;28;20196;-64
2022/10/30 06:26:54;;;;;;;12.63;6.30;;;;;;;17.13;46.00;100219.53;5071331;28;20698;-68
2022/10/30 06:29:21;;;;;;;20.63;6.43;;;;;;;17.14;47.26;100204.22;5072115;28;20197;-66
2022/10/30 06:31:48;;;;;;;11.07;5.47;;;;;;;17.18;45.70;100200.03;5071387;28;20249;-66
2022/10/30 06:34:14;;;;;;;9.17;5.27;;;;;;;16.78;46.65;100196.91;5071165;28;20196;-66
2022/10/30 06:36:41;;;;;;;8.17;5.00;;;;;;;17.03;48.05;100196.91;5071353;28;20196;-67
2022/10/30 06:39:09;;;;;;;5.17;4.57;;;;;;;17.49;48.32;100184.69;5071964;28;20200;-77
2022/10/30 06:41:36;;;;;;;9.37;5.47;;;;;;;18.00;45.34;100184.25;5071323;28;20725;-78
2022/10/30 06:44:03;;;;;;;7.00;5.17;;;;;;;17.85;43.90;100186.53;5070647;28;20191;-79
2022/10/30 06:46:30;;;;;;;17.20;6.73;;;;;;;18.11;45.17;100176.25;5069388;28;20284;-76
2022/10/30 06:48:57;;;;;;;5.17;4.67;;;;;;;18.60;42.17;100181.34;5070589;28;20210;-74
2022/10/30 06:51:24;;;;;;;5.40;4.90;;;;;;;19.03;40.97;100171.09;5070597;28;20188;-67
2022/10/30 06:53:50;;;;;;;31.48;13.45;;;;;;;19.47;44.22;100167.81;5070445;28;20498;-67
2022/10/30 06:56:18;;;;;;;9.13;5.80;;;;;;;20.16;38.24;100175.72;5071195;28;20200;-66
2022/10/30 06:58:45;;;;;;;5.90;5.17;;;;;;;20.48;37.58;100171.47;5071102;28;20217;-65
2022/10/30 07:01:12;;;;;;;7.33;5.13;;;;;;;20.61;37.04;100169.50;5071113;28;20269;-65
2022/10/30 07:03:38;;;;;;;9.33;6.43;;;;;;;20.53;38.36;100168.00;5071258;28;20257;-70
2022/10/30 07:06:05;;;;;;;22.83;12.20;;;;;;;20.34;37.85;100174.72;5070943;28;20219;-70
2022/10/30 07:08:32;;;;;;;12.83;6.17;;;;;;;20.71;37.03;100175.91;5071097;28;20188;-65
2022/10/30 07:10:59;;;;;;;7.33;5.27;;;;;;;20.99;36.26;100173.13;5065698;28;20268;-67
2022/10/30 07:13:27;;;;;;;23.30;9.70;;;;;;;21.23;36.85;100169.16;5071407;28;20253;-66
2022/10/30 07:15:55;;;;;;;8.20;5.63;;;;;;;21.10;35.68;100164.09;5069113;28;20671;-71
2022/10/30 07:18:21;;;;;;;12.43;7.93;;;;;;;21.12;37.33;100148.47;5066225;28;20196;-67
2022/10/30 07:20:48;;;;;;;14.27;6.13;;;;;;;21.52;37.35;100157.13;5067114;28;20196;-70
2022/10/30 07:23:15;;;;;;;9.43;5.40;;;;;;;21.68;34.58;100150.84;5067412;28;20199;-67
2022/10/30 07:25:41;;;;;;;15.33;5.63;;;;;;;22.07;35.00;100154.31;5068081;28;20224;-67
2022/10/30 07:28:08;;;;;;;10.37;5.57;;;;;;;22.28;34.47;100146.16;5066585;28;20656;-67
2022/10/30 07:30:36;;;;;;;10.73;5.83;;;;;;;22.58;34.21;100146.44;5050417;28;20197;-70
2022/10/30 07:33:06;;;;;;;7.20;4.77;;;;;;;22.79;33.70;100148.25;5065905;28;20576;-69
2022/10/30 07:35:35;;;;;;;6.63;4.70;;;;;;;23.01;33.05;100140.84;5066559;28;20196;-70
2022/10/30 07:38:03;;;;;;;4.90;4.47;;;;;;;23.28;32.50;100140.75;5065140;28;20910;-68
2022/10/30 07:40:33;;;;;;;11.97;5.83;;;;;;;23.56;32.85;100138.44;5066154;28;20218;-67
2022/10/30 07:43:01;;;;;;;10.57;6.33;;;;;;;23.81;33.26;100135.03;5067901;28;20184;-67
2022/10/30 07:45:28;;;;;;;8.17;5.37;;;;;;;24.07;31.91;100134.03;5056234;28;20199;-69
2022/10/30 07:47:56;;;;;;;6.80;5.83;;;;;;;24.04;31.11;100124.53;5065165;28;20193;-70
2022/10/30 07:50:23;;;;;;;5.80;4.70;;;;;;;23.64;31.75;100118.16;5068053;28;20615;-68
2022/10/30 07:52:50;;;;;;;7.43;5.93;;;;;;;23.77;32.43;100115.72;5069302;28;20269;-62
2022/10/30 07:55:17;;;;;;;7.13;5.57;;;;;;;24.08;31.95;100109.34;5072456;28;20788;-62
2022/10/30 07:57:44;;;;;;;9.70;5.10;;;;;;;23.93;31.43;100122.06;5073910;28;20193;-65
2022/10/30 08:00:13;;;;;;;20.07;6.00;;;;;;;23.60;31.88;100112.41;5074945;28;20197;-68
2022/10/30 08:02:40;;;;;;;10.07;5.37;;;;;;;23.78;33.27;100109.25;5074658;28;20255;-64
2022/10/30 08:05:09;;;;;;;13.37;5.80;;;;;;;23.95;31.60;100098.19;5072546;28;20242;-63
2022/10/30 08:07:38;;;;;;;6.87;5.70;;;;;;;24.00;32.28;100107.16;5071633;28;20217;-60
2022/10/30 08:10:06;;;;;;;6.63;5.77;;;;;;;23.90;32.26;100106.28;5073341;28;20615;-60
2022/10/30 08:12:33;;;;;;;14.80;5.37;;;;;;;24.06;32.41;100103.34;5074298;28;20251;-61
2022/10/30 08:15:00;;;;;;;12.50;5.50;;;;;;;24.11;32.03;100091.69;5074107;28;20287;-63
2022/10/30 08:17:27;;;;;;;8.83;5.60;;;;;;;24.31;32.39;100087.13;5071427;28;20897;-62
2022/10/30 08:19:54;;;;;;;5.17;4.67;;;;;;;24.67;32.18;100091.47;5072707;28;20182;-64
2022/10/30 08:22:22;;;;;;;5.50;5.00;;;;;;;24.61;30.20;100083.59;5073348;28;20253;-62
2022/10/30 08:24:49;;;;;;;8.80;4.90;;;;;;;24.73;31.32;100082.22;5072206;28;20249;-69
2022/10/30 08:27:15;;;;;;;4.87;4.30;;;;;;;24.90;31.25;100069.16;5073247;28;20226;-69
2022/10/30 08:29:42;;;;;;;8.23;4.47;;;;;;;24.95;30.28;100071.84;5073379;28;20195;-68
2022/10/30 08:32:09;;;;;;;8.97;4.73;;;;;;;25.09;30.91;100072.09;5073391;28;20674;-72
2022/10/30 08:34:35;;;;;;;5.77;4.73;;;;;;;25.15;31.00;100062.03;5074027;28;20567;-73
2022/10/30 08:37:02;;;;;;;6.83;5.00;;;;;;;25.30;31.36;100064.69;5073866;28;20250;-74
2022/10/30 08:39:30;;;;;;;9.47;4.30;;;;;;;25.53;31.19;100058.63;5073891;28;20257;-73
2022/10/30 08:41:58;;;;;;;5.47;4.37;;;;;;;25.57;29.55;100062.41;5074219;28;20244;-72
2022/10/30 08:44:25;;;;;;;8.63;4.23;;;;;;;25.65;29.79;100059.09;5074372;28;20279;-73
2022/10/30 08:46:51;;;;;;;10.97;4.47;;;;;;;25.86;30.07;100050.56;5074282;28;20216;-73
2022/10/30 08:49:18;;;;;;;8.97;4.20;;;;;;;26.11;29.25;100060.47;5074285;28;20197;-74
2022/10/30 08:51:45;;;;;;;5.87;3.90;;;;;;;26.16;29.79;100054.97;5073760;28;20196;-74
2022/10/30 08:54:11;;;;;;;6.77;3.87;;;;;;;26.12;29.23;100059.38;5073731;28;20659;-75
2022/10/30 08:56:39;;;;;;;6.43;3.80;;;;;;;26.09;29.21;100059.97;5074324;28;20200;-74
2022/10/30 08:59:06;;;;;;;6.33;3.83;;;;;;;26.22;29.08;100049.25;5073735;28;20192;-72
2022/10/30 09:01:33;;;;;;;5.53;3.90;;;;;;;26.40;28.76;100056.72;5074135;28;20192;-63
2022/10/30 09:03:59;;;;;;;7.47;3.53;;;;;;;26.45;28.45;100042.25;5073591;28;20192;-64
2022/10/30 09:06:26;;;;;;;5.37;3.43;;;;;;;26.63;28.77;100036.09;5072985;28;20269;-64
2022/10/30 09:08:53;;;;;;;8.33;3.90;;;;;;;26.80;28.45;100036.47;5073547;28;20196;-64
2022/10/30 09:11:19;;;;;;;3.17;2.90;;;;;;;26.84;28.13;100037.50;5073564;28;20708;-63
2022/10/30 09:13:47;;;;;;;5.30;3.40;;;;;;;26.76;27.74;100038.97;5074032;28;20188;-64
2022/10/30 09:16:14;;;;;;;7.30;3.63;;;;;;;26.70;28.33;100033.84;5073784;28;20200;-64
2022/10/30 09:18:41;;;;;;;10.80;3.50;;;;;;;26.67;27.97;100028.97;5073734;28;20196;-65
2022/10/30 09:21:08;;;;;;;12.30;3.63;;;;;;;26.57;28.33;100023.56;5073890;28;20569;-63
2022/10/30 09:23:35;;;;;;;3.97;3.10;;;;;;;26.69;28.35;100021.28;5073718;28;20253;-64
2022/10/30 09:26:01;;;;;;;5.67;3.17;;;;;;;26.72;27.95;100020.72;5073684;28;20217;-65
2022/10/30 09:28:28;;;;;;;4.97;3.00;;;;;;;26.83;27.63;100016.81;5073087;28;20663;-65
2022/10/30 09:30:56;;;;;;;6.07;3.23;;;;;;;26.71;27.71;100005.47;5073224;28;20571;-65
2022/10/30 09:33:23;;;;;;;3.30;2.60;;;;;;;26.50;27.47;99998.59;5073112;28;20255;-64
2022/10/30 09:35:50;;;;;;;6.00;2.80;;;;;;;26.40;28.06;99995.94;5073086;28;20192;-65
2022/10/30 09:38:16;;;;;;;3.23;2.93;;;;;;;26.44;28.32;99997.00;5073418;28;20192;-64
2022/10/30 09:41:01;;;;;;;2.77;2.57;;;;;;;26.50;27.65;99990.41;5073166;28;20196;-66
2022/10/30 09:43:38;;;;;;;3.23;2.70;;;;;;;26.66;27.41;99989.97;5073390;28;20316;-66
2022/10/30 09:46:26;;;;;;;7.63;3.03;;;;;;;26.86;27.00;99986.25;5073260;28;20190;-65
2022/10/30 09:49:26;;;;;;;7.23;2.80;;;;;;;27.07;26.91;99982.16;5072793;28;20184;-65
2022/10/30 09:52:20;;;;;;;4.10;2.73;;;;;;;27.01;26.33;99972.41;5072888;28;20184;-65
2022/10/30 09:55:00;;;;;;;2.30;2.20;;;;;;;26.83;26.40;99959.53;5072648;28;20651;-67
2022/10/30 09:57:39;;;;;;;2.30;2.10;;;;;;;26.38;26.97;99960.81;5072532;28;20347;-68
2022/10/30 10:00:10;;;;;;;2.97;2.77;;;;;;;26.51;30.05;99959.31;5072154;28;20621;-68
2022/10/30 10:02:52;;;;;;;2.73;2.50;;;;;;;26.59;27.01;99956.00;5072463;28;20246;-69
2022/10/30 10:05:22;;;;;;;2.30;2.17;;;;;;;26.54;26.95;99954.09;5068469;28;20250;-70
2022/10/30 10:07:52;;;;;;;8.47;2.27;;;;;;;26.69;26.67;99955.88;5060276;28;20285;-66
2022/10/30 10:10:25;;;;;;;3.33;2.17;;;;;;;26.78;26.54;99943.25;5048679;28;20254;-71
2022/10/30 10:12:54;;;;;;;6.87;2.77;;;;;;;26.98;26.50;99948.44;5054515;28;20273;-69
2022/10/30 10:15:37;;;;;;;3.03;2.30;;;;;;;27.18;27.01;99949.00;5068040;28;20245;-67
2022/10/30 10:18:14;;;;;;;2.47;2.27;;;;;;;27.38;25.86;99945.19;5067347;28;20550;-68
2022/10/30 10:20:43;;;;;;;2.60;2.40;;;;;;;27.36;25.58;99934.56;5068788;28;20701;-70
2022/10/30 10:23:17;;;;;;;5.00;2.90;;;;;;;27.16;25.77;99944.94;5068933;28;20204;-69
2022/10/30 10:25:51;;;;;;;4.20;3.30;;;;;;;27.03;26.75;99929.28;5072111;28;20192;-69
2022/10/30 10:28:42;;;;;;;5.07;2.50;;;;;;;27.05;25.96;99927.91;5072451;28;20231;-69
2022/10/30 10:31:20;;;;;;;2.93;2.33;;;;;;;27.19;26.30;99917.06;5073260;28;20192;-66
2022/10/30 10:34:04;;;;;;;4.90;3.73;;;;;;;27.05;25.56;99895.16;5071889;28;20709;-66
2022/10/30 10:36:41;;;;;;;4.97;3.50;;;;;;;27.00;26.98;99908.88;5072823;28;20261;-66
2022/10/30 10:39:27;;;;;;;3.33;3.03;;;;;;;26.93;25.49;99902.97;5071900;28;20191;-66
2022/10/30 10:42:01;;;;;;;4.57;2.37;;;;;;;26.92;25.87;99901.34;5072499;28;20184;-66
2022/10/30 10:44:46;;;;;;;4.37;2.30;;;;;;;26.85;25.96;99894.63;5072521;28;20187;-66
2022/10/30 10:47:35;;;;;;;3.10;2.10;;;;;;;26.84;26.38;99884.81;5068428;28;20218;-66
2022/10/30 10:50:15;;;;;;;2.07;1.80;;;;;;;27.01;26.83;99872.31;5067955;28;20196;-68
2022/10/30 10:52:46;;;;;;;5.67;1.90;;;;;;;27.10;25.51;99880.63;5067366;28;20188;-66
2022/10/30 10:55:17;;;;;;;2.20;1.60;;;;;;;27.06;25.63;99874.13;5068622;28;20655;-65
2022/10/30 10:57:45;;;;;;;3.57;2.07;;;;;;;27.13;25.82;99875.41;5072739;28;20192;-65
2022/10/30 11:00:15;;;;;;;4.53;1.80;;;;;;;27.22;25.64;99868.22;5066810;28;20199;-65
2022/10/30 11:02:47;;;;;;;2.10;1.90;;;;;;;27.22;27.19;99853.75;5070911;28;20188;-66
2022/10/30 11:05:26;;;;;;;2.20;2.10;;;;;;;27.37;25.43;99859.81;5067656;28;20256;-67
2022/10/30 11:07:54;;;;;;;3.03;2.20;;;;;;;27.45;25.43;99858.31;5068719;28;20289;-65
2022/10/30 11:10:22;;;;;;;7.90;2.47;;;;;;;27.53;26.36;99852.19;5070142;28;20188;-67
2022/10/30 11:12:49;;;;;;;2.03;1.93;;;;;;;27.47;24.89;99854.19;5069765;28;20590;-70
2022/10/30 11:15:26;;;;;;;3.23;2.03;;;;;;;27.62;25.74;99850.38;5071384;28;20623;-66
2022/10/30 11:18:00;;;;;;;2.23;1.97;;;;;;;27.79;25.22;99845.16;5070979;28;20237;-68
2022/10/30 11:20:36;;;;;;;3.27;1.80;;;;;;;27.77;25.06;99847.41;5070526;28;20184;-67
2022/10/30 11:23:03;;;;;;;7.50;1.90;;;;;;;27.79;25.76;99834.25;5071131;28;20639;-64
2022/10/30 11:25:35;;;;;;;8.87;2.30;;;;;;;27.78;24.85;99830.72;5068062;28;20717;-64
2022/10/30 11:28:04;;;;;;;3.53;2.17;;;;;;;27.58;24.03;99830.25;5064156;28;20294;-65
2022/10/30 11:30:32;;;;;;;6.53;2.20;;;;;;;27.31;24.55;99830.97;5070730;28;20249;-65
2022/10/30 11:32:59;;;;;;;2.90;2.63;;;;;;;27.41;24.73;99824.53;5056498;28;20193;-66